Red Oak, TX

7:14 PM CDT on May 04, 2015 (GMT -0500)
Windmill Ridge Estates | | Change Station
CLOSE
Current Station
Personal Weather Station
Location: Ovilla, TX
Elevation: 738 ft
Nearby Weather Stations

Elev 738 ft 32.50 °N, 96.89 °W | Updated 6 seconds ago

Partly Cloudy
Partly Cloudy
77.4 °F
Feels Like 79 °F
N
6.7
Wind Variable Wind from SSE
Gusts 7.4 mph

Today
High -- | Low -- °F
--% Chance of Precip.
Yesterday
High -- | Low -- °F
Precip. -- in
6:37 AM 8:10 PM
Full, 99% visible
Pressure 30.02 in
Visibility 10.0 miles
Clouds Clear
Heat Index 79 °F
Dew Point 55 °F
Humidity 46%
Rainfall 0.00 in
Snow Depth Not available.
UV 1.0 out of 12
Pollen 7.80 out of 12
Air Quality Not available.
Flu Activity Sporadic
METAR KJWY 042355Z AUTO 12010G14KT 10SM CLR 25/14 A3002 RMK AO2 T02450139 10279 20245

More Conditions Fewer Conditions

Pressure 30.02 in
Visibility 10.0 miles
Clouds Clear
Heat Index 79 °F
Dew Point 55 °F
Humidity 46%
Rainfall 0.00 in
Snow Depth Not available.
UV 1.0 out of 12
Pollen 7.80 out of 12
Air Quality Not available.
Flu Activity Sporadic
METAR KJWY 042355Z AUTO 12010G14KT 10SM CLR 25/14 A3002 RMK AO2 T02450139 10279 20245

More Conditions Fewer Conditions

Nepal has a long way to go to dig out and rebuild from a devastating earthquake. We have teamed up with several charities and organizations to make contributing to the relief effort as easy as possible.
How you can help: Portlight Strategies | Red Cross

10-Day Weather Forecast

Almanac

Astronomy

May. 04, 2015 Rise Set
Actual Time
Civil Twilight
Nautical Twilight
Astronomical Twilight
Moon
Length of Visible Light
Length of Day
Tomorrow will be .
, % of the Moon is Illuminated

Today's Extremes

State Highs State Lows

Community

WunderPhotos

Upload Photos

1,818,738 photos uploaded!

WunderBlogs® & News

Nearby

Air Quality

  Air Quality AQ Index Pollutant
Not available.

Snow Depth

Station Depth Elevation

Earthquake Activity

City Distance Mag. Time & Date
Minimum magnitude displayed is 2.5.

Coastal Water Temperatures

Place Temperature

Stations

Nearby Weather Stations

Station Location Temp. Windchill Dew Point Humidity Wind Precip. Elev Updated Type